Macksburg, Iowa
Current Conditions -  °F | °C
As of 8:35 PM on Wednesday 24 Dec 2014 (Local Time) from KCSQ Reporting Station
Overcast Overcast  
Wind Chill: 19°   Ceiling: 600
Heat Index: 30°   Visibility: 7mi
Dew Point: 30°   Wind: 16mph
Humidity: 100%   Direction: 250°WSW
Pressure: 29.75"   Gusts: NA
Location:  41.21°N, 94.19°W
Report Text: KCSQ 250235Z AUTO 25014KT 7SM OVC006 M01/M01 A2975 RMK AO2
Loading
Personal Weather Stations






























Interactive Weather Map New forecast layout! Learn more

10-Day Weather Forecast

Advertisements
Track Severe Weather on mobile